createdAt,value
2022-08-05T00:00:16.202Z,99922.22
2022-08-05T00:02:50.430Z,99924.03
2022-08-05T00:06:02.039Z,99915.78
2022-08-05T00:08:06.341Z,99914.41
2022-08-05T00:10:53.140Z,99909.03
2022-08-05T00:13:21.491Z,99908.75
2022-08-05T00:16:12.602Z,99906.09
2022-08-05T00:18:45.424Z,99906.91
2022-08-05T00:21:14.375Z,99911.69
2022-08-05T00:23:46.782Z,99911.19
2022-08-05T00:26:22.117Z,99911.09
2022-08-05T00:28:50.801Z,99914.94
2022-08-05T00:31:54.085Z,99912.22
2022-08-05T00:34:53.819Z,99906.03
2022-08-05T00:37:09.673Z,99900.81
2022-08-05T00:39:57.211Z,99900.63
2022-08-05T00:42:35.466Z,99905.41
2022-08-05T00:45:08.370Z,99903.47
2022-08-05T00:47:56.367Z,99900.91
2022-08-05T00:50:25.289Z,99904.41
2022-08-05T00:52:56.573Z,99902.13
2022-08-05T00:55:42.210Z,99900.69
2022-08-05T00:58:11.614Z,99890.13
2022-08-05T01:00:39.855Z,99888.69
2022-08-05T01:03:07.919Z,99890.63
2022-08-05T01:05:35.734Z,99898.66
2022-08-05T01:08:42.232Z,99892.88
2022-08-05T01:10:52.363Z,99887.34
2022-08-05T01:13:58.585Z,99889.81
2022-08-05T01:16:31.081Z,99890.69
2022-08-05T01:19:14.305Z,99897.00
2022-08-05T01:22:00.172Z,99893.50
2022-08-05T01:24:46.533Z,99894.59
2022-08-05T01:27:33.094Z,99890.06
2022-08-05T01:30:02.844Z,99895.50
2022-08-05T01:32:33.241Z,99894.47
2022-08-05T01:35:03.193Z,99896.81
2022-08-05T01:37:44.426Z,99898.44
2022-08-05T01:40:14.578Z,99898.00
2022-08-05T01:42:47.360Z,99894.34
2022-08-05T01:45:16.632Z,99892.84
2022-08-05T01:47:47.788Z,99888.63
2022-08-05T01:50:35.659Z,99886.13
2022-08-05T01:53:06.651Z,99886.13
2022-08-05T01:55:36.903Z,99883.19
2022-08-05T01:58:15.604Z,99882.44
2022-08-05T02:00:46.564Z,99887.44
2022-08-05T02:03:34.270Z,99886.16
2022-08-05T02:06:37.478Z,99885.38
2022-08-05T02:08:58.826Z,99878.72
2022-08-05T02:11:33.359Z,99881.75
2022-08-05T02:14:05.064Z,99878.06
2022-08-05T02:16:37.317Z,99877.78
2022-08-05T02:19:12.029Z,99877.00
2022-08-05T02:21:46.796Z,99878.91
2022-08-05T02:24:18.894Z,99891.06
2022-08-05T02:26:54.914Z,99885.00
2022-08-05T02:29:59.152Z,99884.78
2022-08-05T02:32:23.780Z,99885.56
2022-08-05T02:34:54.983Z,99878.69
2022-08-05T02:37:23.712Z,99877.13
2022-08-05T02:39:52.250Z,99876.28
2022-08-05T02:42:26.028Z,99875.22
2022-08-05T02:44:55.783Z,99873.84
2022-08-05T02:47:23.782Z,99874.41
2022-08-05T02:49:51.387Z,99881.56
2022-08-05T02:52:30.186Z,99875.97
2022-08-05T02:55:01.900Z,99868.41
2022-08-05T02:58:11.079Z,99874.22
2022-08-05T03:00:20.385Z,99866.78
2022-08-05T03:02:48.751Z,99860.47
2022-08-05T03:05:16.185Z,99874.25
2022-08-05T03:10:36.184Z,99870.88
2022-08-05T03:13:11.557Z,99880.13
2022-08-05T03:15:45.430Z,99874.84
2022-08-05T03:18:12.540Z,99879.13
2022-08-05T03:20:48.982Z,99876.47
2022-08-05T03:23:17.793Z,99874.84
2022-08-05T03:26:30.142Z,99878.63
2022-08-05T03:28:32.992Z,99872.56
2022-08-05T03:31:01.794Z,99871.25
2022-08-05T03:33:51.275Z,99871.53
2022-08-05T03:36:17.042Z,99871.25
2022-08-05T03:38:58.225Z,99865.72
2022-08-05T03:41:26.257Z,99859.66
2022-08-05T03:44:11.478Z,99862.81
2022-08-05T03:46:39.910Z,99861.78
2022-08-05T03:49:06.895Z,99867.56
2022-08-05T03:52:38.912Z,99860.44
2022-08-05T03:56:01.680Z,99866.50
2022-08-05T03:57:41.775Z,99860.69
2022-08-05T04:00:15.935Z,99867.53
2022-08-05T04:02:58.344Z,99870.41
2022-08-05T04:05:33.243Z,99871.50
2022-08-05T04:08:05.464Z,99864.84
2022-08-05T04:10:37.913Z,99874.63
2022-08-05T04:13:06.701Z,99861.16
2022-08-05T04:15:35.845Z,99862.94
2022-08-05T04:18:07.381Z,99865.31
2022-08-05T04:20:37.700Z,99872.16
2022-08-05T04:23:12.666Z,99873.72
2022-08-05T04:25:57.316Z,99864.47
2022-08-05T04:28:30.556Z,99879.91
2022-08-05T04:31:00.848Z,99874.63
2022-08-05T04:34:17.662Z,99873.31
2022-08-05T04:36:44.873Z,99878.78
2022-08-05T04:39:05.750Z,99867.94
2022-08-05T04:41:37.701Z,99868.09
2022-08-05T04:44:09.311Z,99863.31
2022-08-05T04:46:39.417Z,99865.94
2022-08-05T04:49:12.107Z,99874.88
2022-08-05T04:51:44.970Z,99863.63
2022-08-05T04:54:14.974Z,99871.78
2022-08-05T04:56:43.685Z,99866.19
2022-08-05T04:59:23.877Z,99866.59
2022-08-05T05:02:06.992Z,99865.44
2022-08-05T05:04:49.687Z,99872.47
2022-08-05T05:07:18.443Z,99870.03
2022-08-05T05:09:53.520Z,99865.66
2022-08-05T05:12:24.542Z,99862.72
2022-08-05T05:14:55.172Z,99859.56
2022-08-05T05:17:24.899Z,99848.13
2022-08-05T05:20:11.792Z,99856.06
2022-08-05T05:22:43.976Z,99863.19
2022-08-05T05:27:44.458Z,99865.59
2022-08-05T05:30:29.881Z,99862.44
2022-08-05T05:33:15.823Z,99857.63
2022-08-05T05:35:47.073Z,99863.13
2022-08-05T05:38:27.008Z,99864.00
2022-08-05T05:41:02.868Z,99863.69
2022-08-05T05:44:15.735Z,99866.03
2022-08-05T05:51:13.096Z,99871.47
2022-08-05T05:53:57.381Z,99872.25
2022-08-05T05:56:35.200Z,99874.91
2022-08-05T05:59:18.261Z,99874.91
2022-08-05T06:01:58.235Z,99876.63
2022-08-05T06:04:25.972Z,99870.78
2022-08-05T06:06:56.512Z,99875.66
2022-08-05T06:10:00.247Z,99878.47
2022-08-05T06:12:16.930Z,99871.63
2022-08-05T06:14:48.678Z,99868.53
2022-08-05T06:17:52.376Z,99867.44
2022-08-05T06:20:09.677Z,99884.63
2022-08-05T06:22:50.063Z,99886.63
2022-08-05T06:25:25.180Z,99884.47
2022-08-05T06:28:10.447Z,99875.00
2022-08-05T06:30:40.507Z,99873.81
2022-08-05T06:33:09.956Z,99880.66
2022-08-05T06:36:03.944Z,99878.94
2022-08-05T06:38:36.233Z,99880.72
2022-08-05T06:41:07.674Z,99882.84
2022-08-05T06:43:57.576Z,99893.38
2022-08-05T06:46:29.709Z,99885.06
2022-08-05T06:49:01.277Z,99883.69
2022-08-05T06:51:31.065Z,99883.34
2022-08-05T06:54:04.837Z,99883.94
2022-08-05T06:56:39.521Z,99874.34
2022-08-05T06:59:11.982Z,99880.78
2022-08-05T07:01:42.400Z,99887.47
2022-08-05T07:04:10.254Z,99883.13
2022-08-05T07:06:37.382Z,99889.16
2022-08-05T07:09:08.501Z,99880.31
2022-08-05T07:11:51.743Z,99882.22
2022-08-05T07:14:39.437Z,99883.22
2022-08-05T07:17:59.533Z,99874.13
2022-08-05T07:22:44.117Z,99870.00
2022-08-05T07:25:54.728Z,99875.81
2022-08-05T07:28:04.187Z,99870.28
2022-08-05T07:30:39.761Z,99868.34
2022-08-05T07:33:15.996Z,99870.47
2022-08-05T07:36:02.761Z,99873.03
2022-08-05T07:38:43.441Z,99871.09
2022-08-05T07:42:13.615Z,99867.50
2022-08-05T07:44:18.912Z,99871.22
2022-08-05T07:46:48.408Z,99879.91
2022-08-05T07:49:16.266Z,99877.69
2022-08-05T07:51:53.269Z,99874.88
2022-08-05T07:54:31.190Z,99875.16
2022-08-05T07:57:18.005Z,99875.97
2022-08-05T07:59:49.155Z,99879.28
2022-08-05T08:02:26.685Z,99876.50
2022-08-05T08:04:59.625Z,99875.28
2022-08-05T08:07:28.339Z,99883.94
2022-08-05T08:09:55.732Z,99874.63
2022-08-05T08:12:33.348Z,99871.53
2022-08-05T08:15:05.267Z,99870.19
2022-08-05T08:17:46.282Z,99872.13
2022-08-05T08:20:43.976Z,99872.56
2022-08-05T08:24:00.298Z,99868.78
2022-08-05T08:26:02.405Z,99864.06
2022-08-05T08:28:36.831Z,99855.38
2022-08-05T08:31:18.994Z,99863.03
2022-08-05T08:33:51.422Z,99861.94
2022-08-05T08:36:39.284Z,99858.91
2022-08-05T08:39:14.966Z,99855.38
2022-08-05T08:41:52.656Z,99856.22
2022-08-05T08:45:18.645Z,99848.50
2022-08-05T08:47:47.238Z,99856.63
2022-08-05T08:50:31.044Z,99852.59
2022-08-05T08:53:01.859Z,99855.84
2022-08-05T08:56:04.146Z,99847.38
2022-08-05T08:58:37.246Z,99848.31
2022-08-05T09:01:15.870Z,99857.81
2022-08-05T09:03:46.583Z,99854.94
2022-08-05T09:06:18.658Z,99851.47
2022-08-05T09:08:47.832Z,99846.03
2022-08-05T09:11:15.743Z,99851.25
2022-08-05T09:14:09.345Z,99839.59
2022-08-05T09:16:33.263Z,99829.84
2022-08-05T09:19:01.179Z,99833.44
2022-08-05T09:22:22.972Z,99830.44
2022-08-05T09:24:21.399Z,99827.34
2022-08-05T09:26:52.646Z,99832.69
2022-08-05T09:29:20.149Z,99832.00
2022-08-05T09:32:42.927Z,99824.31
2022-08-05T09:34:58.857Z,99821.22
2022-08-05T09:38:12.055Z,99815.84
2022-08-05T09:40:29.788Z,99822.66
2022-08-05T09:42:59.263Z,99819.22
2022-08-05T09:46:06.959Z,99809.84
2022-08-05T09:48:27.256Z,99820.25
2022-08-05T09:51:00.420Z,99822.53
2022-08-05T09:53:54.327Z,99818.53
2022-08-05T09:56:23.885Z,99816.34
2022-08-05T09:59:00.133Z,99820.28
2022-08-05T10:01:32.012Z,99828.03
2022-08-05T10:04:10.478Z,99824.91
2022-08-05T10:06:40.746Z,99818.53
2022-08-05T10:09:27.303Z,99824.19
2022-08-05T10:11:56.131Z,99818.69
2022-08-05T10:14:26.697Z,99811.84
2022-08-05T10:16:57.725Z,99802.28
2022-08-05T10:20:03.767Z,99800.97
2022-08-05T10:22:29.784Z,99809.09
2022-08-05T10:24:58.046Z,99802.34
2022-08-05T10:28:13.166Z,99805.97
2022-08-05T10:32:46.714Z,99792.81
2022-08-05T10:33:09.407Z,99790.06
2022-08-05T10:35:44.243Z,99793.19
2022-08-05T10:38:12.768Z,99792.34
2022-08-05T10:40:43.477Z,99789.72
2022-08-05T10:43:12.634Z,99782.44
2022-08-05T10:45:42.954Z,99785.97
2022-08-05T10:48:35.089Z,99782.16
2022-08-05T10:51:22.177Z,99787.53
2022-08-05T10:53:50.211Z,99783.34
2022-08-05T10:56:25.170Z,99789.22
2022-08-05T11:00:02.963Z,99775.28
2022-08-05T11:02:14.736Z,99766.06
2022-08-05T11:04:55.678Z,99771.97
2022-08-05T11:07:32.742Z,99771.69
2022-08-05T11:10:21.888Z,99767.00
2022-08-05T11:12:55.717Z,99765.59
2022-08-05T11:15:58.985Z,99767.13
2022-08-05T11:18:27.315Z,99758.56
2022-08-05T11:20:57.473Z,99764.72
2022-08-05T11:24:02.562Z,99760.94
2022-08-05T11:26:28.583Z,99757.09
2022-08-05T11:29:11.490Z,99760.94
2022-08-05T11:31:57.639Z,99760.22
2022-08-05T11:34:37.987Z,99769.41
2022-08-05T11:37:06.271Z,99768.63
2022-08-05T11:40:00.340Z,99767.84
2022-08-05T11:42:31.956Z,99758.56
2022-08-05T11:45:05.427Z,99757.09
2022-08-05T11:47:49.896Z,99754.91
2022-08-05T11:50:18.650Z,99750.44
2022-08-05T11:52:49.508Z,99755.75
2022-08-05T11:55:17.206Z,99758.56
2022-08-05T11:58:10.089Z,99745.53
2022-08-05T12:00:38.615Z,99750.44
2022-08-05T12:03:28.930Z,99749.28
2022-08-05T12:05:59.503Z,99751.19
2022-08-05T12:08:27.150Z,99746.97
2022-08-05T12:10:54.497Z,99752.72
2022-08-05T12:13:47.626Z,99749.75
2022-08-05T12:16:14.775Z,99737.47
2022-08-05T12:18:49.489Z,99736.59
2022-08-05T12:21:20.991Z,99735.84
2022-08-05T12:24:06.998Z,99728.53
2022-08-05T12:26:44.782Z,99732.50
2022-08-05T12:29:16.150Z,99730.53
2022-08-05T12:31:48.318Z,99724.44
2022-08-05T12:34:25.956Z,99727.13
2022-08-05T12:36:54.770Z,99733.28
2022-08-05T12:39:27.786Z,99735.22
2022-08-05T12:42:02.175Z,99731.44
2022-08-05T12:44:33.648Z,99732.25
2022-08-05T12:47:02.217Z,99726.09
2022-08-05T12:50:04.652Z,99724.94
2022-08-05T12:52:35.428Z,99728.03
2022-08-05T12:55:22.139Z,99722.66
2022-08-05T12:58:49.053Z,99718.41
2022-08-05T13:02:02.672Z,99718.31
2022-08-05T13:03:32.510Z,99720.69
2022-08-05T13:06:01.051Z,99717.69
2022-08-05T13:08:29.326Z,99716.94
2022-08-05T13:11:02.589Z,99713.13
2022-08-05T13:14:05.789Z,99707.75
2022-08-05T13:16:19.991Z,99706.97
2022-08-05T13:18:55.045Z,99704.31
2022-08-05T13:21:27.709Z,99691.72
2022-08-05T13:23:58.687Z,99687.94
2022-08-05T13:26:30.259Z,99684.88
2022-08-05T13:28:57.538Z,99691.13
2022-08-05T13:31:33.879Z,99688.38
2022-08-05T13:34:20.919Z,99688.03
2022-08-05T13:36:52.626Z,99687.25
2022-08-05T13:40:13.016Z,99685.66
2022-08-05T13:42:07.321Z,99682.56
2022-08-05T13:44:34.629Z,99679.13
2022-08-05T13:47:08.503Z,99674.09
2022-08-05T13:49:36.629Z,99670.28
2022-08-05T13:52:10.049Z,99670.28
2022-08-05T13:54:37.589Z,99674.16
2022-08-05T13:57:04.965Z,99668.75
2022-08-05T13:59:33.225Z,99664.97
2022-08-05T14:02:04.457Z,99661.53
2022-08-05T14:04:51.737Z,99666.19
2022-08-05T14:07:55.766Z,99666.19
2022-08-05T14:10:08.474Z,99658.13
2022-08-05T14:12:36.686Z,99653.41
2022-08-05T14:15:05.931Z,99651.53
2022-08-05T14:17:51.680Z,99645.03
2022-08-05T14:20:27.432Z,99645.06
2022-08-05T14:22:54.845Z,99640.88
2022-08-05T14:25:22.788Z,99636.22
2022-08-05T14:27:56.405Z,99634.31
2022-08-05T14:30:27.777Z,99635.84
2022-08-05T14:32:56.794Z,99629.72
2022-08-05T14:35:37.031Z,99622.84
2022-08-05T14:38:32.041Z,99625.91
2022-08-05T14:41:00.255Z,99620.53
2022-08-05T14:44:01.645Z,99625.06
2022-08-05T14:46:14.595Z,99615.44
2022-08-05T14:48:43.121Z,99615.09
2022-08-05T14:51:16.526Z,99613.53
2022-08-05T14:53:45.294Z,99612.75
2022-08-05T14:56:33.296Z,99613.91
2022-08-05T14:59:02.535Z,99609.72
2022-08-05T15:01:48.646Z,99612.06
2022-08-05T15:04:20.759Z,99608.22
2022-08-05T15:06:50.257Z,99602.84
2022-08-05T15:09:50.627Z,99607.09
2022-08-05T15:12:05.969Z,99606.34
2022-08-05T15:14:36.858Z,99608.25
2022-08-05T15:17:46.550Z,99609.78
2022-08-05T15:20:09.750Z,99611.31
2022-08-05T15:22:44.728Z,99608.22
2022-08-05T15:25:14.339Z,99609.78
2022-08-05T15:27:52.067Z,99603.63
2022-08-05T15:30:19.902Z,99602.41
2022-08-05T15:32:46.995Z,99612.00
2022-08-05T15:35:16.245Z,99608.16
2022-08-05T15:38:32.667Z,99608.91
2022-08-05T15:41:00.836Z,99609.59
2022-08-05T15:43:20.058Z,99608.50
2022-08-05T15:45:47.920Z,99605.00
2022-08-05T15:48:28.639Z,99608.09
2022-08-05T15:50:56.489Z,99605.00
2022-08-05T15:53:26.711Z,99601.88
2022-08-05T15:56:13.028Z,99599.19
2022-08-05T15:58:41.597Z,99605.00
2022-08-05T16:01:16.654Z,99603.84
2022-08-05T16:03:48.332Z,99610.38
2022-08-05T16:06:20.898Z,99611.91
2022-08-05T16:08:51.234Z,99601.09
2022-08-05T16:11:40.135Z,99607.59
2022-08-05T16:14:08.971Z,99616.78
2022-08-05T16:16:36.667Z,99611.31
2022-08-05T16:19:06.573Z,99613.97
2022-08-05T16:21:58.728Z,99601.19
2022-08-05T16:24:39.529Z,99598.50
2022-08-05T16:27:08.684Z,99607.72
2022-08-05T16:29:38.987Z,99604.56
2022-08-05T16:32:10.074Z,99603.34
2022-08-05T16:34:42.435Z,99610.53
2022-08-05T16:38:02.635Z,99608.13
2022-08-05T16:40:05.748Z,99600.72
2022-08-05T16:42:36.309Z,99602.66
2022-08-05T16:46:05.334Z,99607.19
2022-08-05T16:48:25.411Z,99597.16
2022-08-05T16:51:00.339Z,99601.28
2022-08-05T16:53:32.019Z,99596.31
2022-08-05T16:55:59.676Z,99595.44
2022-08-05T16:58:27.815Z,99595.41
2022-08-05T17:00:56.684Z,99598.06
2022-08-05T17:03:32.189Z,99603.00
2022-08-05T17:06:01.800Z,99599.88
2022-08-05T17:08:52.202Z,99601.41
2022-08-05T17:11:26.973Z,99606.75
2022-08-05T17:14:06.151Z,99603.59
2022-08-05T17:16:45.221Z,99594.38
2022-08-05T17:19:35.575Z,99593.63
2022-08-05T17:22:25.009Z,99593.19
2022-08-05T17:25:09.696Z,99597.38
2022-08-05T17:28:19.054Z,99598.44
2022-08-05T17:31:08.363Z,99598.00
2022-08-05T17:34:03.045Z,99596.31
2022-08-05T17:36:40.065Z,99590.06
2022-08-05T17:39:23.664Z,99592.66
2022-08-05T17:42:18.520Z,99598.25
2022-08-05T17:44:57.847Z,99605.81
2022-08-05T17:47:45.317Z,99600.34
2022-08-05T17:50:30.808Z,99600.97
2022-08-05T17:53:08.638Z,99608.53
2022-08-05T17:55:42.315Z,99615.75
2022-08-05T17:58:52.559Z,99604.97
2022-08-05T18:01:49.579Z,99606.69
2022-08-05T18:04:27.258Z,99598.81
2022-08-05T18:07:00.549Z,99613.94
2022-08-05T18:09:59.942Z,99612.19
2022-08-05T18:12:23.771Z,99613.19
2022-08-05T18:14:53.753Z,99604.97
2022-08-05T18:17:58.739Z,99614.06
2022-08-05T18:20:15.678Z,99612.38
2022-08-05T18:22:46.196Z,99614.84
2022-08-05T18:25:23.020Z,99611.19
2022-08-05T18:27:54.743Z,99620.69
2022-08-05T18:30:23.298Z,99623.72
2022-08-05T18:33:01.157Z,99623.31
2022-08-05T18:36:00.009Z,99631.34
2022-08-05T18:38:19.487Z,99630.03
2022-08-05T18:41:53.757Z,99634.78
2022-08-05T18:43:43.123Z,99637.31
2022-08-05T18:46:20.258Z,99638.84
2022-08-05T18:48:53.864Z,99639.63
2022-08-05T18:52:06.597Z,99640.00
2022-08-05T18:54:27.609Z,99641.53
2022-08-05T18:56:58.349Z,99642.56
2022-08-05T18:59:44.279Z,99644.72
2022-08-05T19:02:28.352Z,99654.50
2022-08-05T19:05:02.561Z,99656.66
2022-08-05T19:07:49.680Z,99668.25
2022-08-05T19:10:18.710Z,99663.50
2022-08-05T19:12:53.661Z,99663.00
2022-08-05T19:15:56.885Z,99665.13
2022-08-05T19:18:13.421Z,99669.47
2022-08-05T19:20:52.291Z,99672.41
2022-08-05T19:24:05.771Z,99669.56
2022-08-05T19:26:09.332Z,99678.28
2022-08-05T19:28:42.045Z,99672.03
2022-08-05T19:31:13.255Z,99672.28
2022-08-05T19:33:55.672Z,99676.41
2022-08-05T19:36:29.158Z,99677.75
2022-08-05T19:39:00.984Z,99678.34
2022-08-05T19:41:58.220Z,99674.00
2022-08-05T19:44:18.914Z,99674.59
2022-08-05T19:46:50.114Z,99680.16
2022-08-05T19:49:18.098Z,99676.16
2022-08-05T19:52:08.324Z,99672.16
2022-08-05T19:54:34.299Z,99679.94
2022-08-05T19:57:06.269Z,99674.84
2022-08-05T19:59:54.746Z,99679.25
2022-08-05T20:02:26.016Z,99676.16
2022-08-05T20:04:58.375Z,99673.75
2022-08-05T20:07:46.744Z,99673.50
2022-08-05T20:10:17.434Z,99677.97
2022-08-05T20:12:49.474Z,99675.50
2022-08-05T20:15:48.782Z,99674.50
2022-08-05T20:18:33.606Z,99680.81
2022-08-05T20:21:07.734Z,99677.28
2022-08-05T20:23:50.246Z,99678.59
2022-08-05T20:26:30.709Z,99675.66
2022-08-05T20:29:00.843Z,99669.00
2022-08-05T20:31:42.880Z,99670.78
2022-08-05T20:34:17.090Z,99675.22
2022-08-05T20:36:44.736Z,99676.97
2022-08-05T20:39:12.957Z,99680.94
2022-08-05T20:41:44.201Z,99673.19
2022-08-05T20:44:17.564Z,99665.69
2022-08-05T20:46:47.485Z,99665.94
2022-08-05T20:49:23.911Z,99660.75
2022-08-05T20:51:53.655Z,99663.66
2022-08-05T20:54:55.581Z,99662.72
2022-08-05T20:57:42.661Z,99673.28
2022-08-05T21:00:35.108Z,99662.50
2022-08-05T21:03:02.875Z,99662.81
2022-08-05T21:05:47.421Z,99670.00
2022-08-05T21:08:15.695Z,99669.13
2022-08-05T21:10:48.634Z,99671.34
2022-08-05T21:13:37.848Z,99665.09
2022-08-05T21:16:04.224Z,99670.31
2022-08-05T21:18:31.299Z,99665.63
2022-08-05T21:20:58.329Z,99671.63
2022-08-05T21:23:25.540Z,99671.47
2022-08-05T21:25:55.471Z,99662.25
2022-08-05T21:28:23.843Z,99666.00
2022-08-05T21:30:51.704Z,99664.00
2022-08-05T21:33:22.606Z,99664.31
2022-08-05T21:35:59.016Z,99670.31
2022-08-05T21:38:26.750Z,99664.84
2022-08-05T21:40:54.668Z,99665.50
2022-08-05T21:43:24.739Z,99661.91
2022-08-05T21:45:57.568Z,99664.44
2022-08-05T21:48:28.740Z,99670.41
2022-08-05T21:50:59.622Z,99668.25
2022-08-05T21:53:38.255Z,99667.81
2022-08-05T21:56:16.547Z,99670.31
2022-08-05T21:58:57.065Z,99674.41
2022-08-05T22:01:26.605Z,99672.03
2022-08-05T22:03:56.164Z,99673.16
2022-08-05T22:06:35.634Z,99677.72
2022-08-05T22:09:13.627Z,99680.38
2022-08-05T22:11:46.703Z,99678.66
2022-08-05T22:14:35.857Z,99682.28
2022-08-05T22:17:05.400Z,99690.47
2022-08-05T22:20:00.467Z,99689.84
2022-08-05T22:22:29.981Z,99699.25
2022-08-05T22:25:27.800Z,99688.44
2022-08-05T22:28:11.922Z,99687.22
2022-08-05T22:30:55.966Z,99684.09
2022-08-05T22:33:56.890Z,99682.53
2022-08-05T22:36:14.585Z,99686.13
2022-08-05T22:38:42.749Z,99692.44
2022-08-05T22:41:11.541Z,99683.97
2022-08-05T22:43:40.808Z,99689.28
2022-08-05T22:46:13.295Z,99686.97
2022-08-05T22:48:45.656Z,99691.97
2022-08-05T22:51:16.050Z,99694.13
2022-08-05T22:53:55.116Z,99695.19
2022-08-05T22:56:30.693Z,99691.41
2022-08-05T22:59:04.652Z,99691.38
2022-08-05T23:02:04.930Z,99694.34
2022-08-05T23:04:34.854Z,99711.66
2022-08-05T23:07:02.147Z,99712.59
2022-08-05T23:09:58.070Z,99709.47
2022-08-05T23:12:23.896Z,99706.06
2022-08-05T23:14:51.331Z,99707.22
2022-08-05T23:17:34.249Z,99718.34
2022-08-05T23:20:17.658Z,99722.47
2022-08-05T23:22:49.536Z,99725.00
2022-08-05T23:25:52.817Z,99733.13
2022-08-05T23:28:39.555Z,99741.28
2022-08-05T23:31:18.043Z,99729.69
2022-08-05T23:34:04.422Z,99737.06
2022-08-05T23:36:46.241Z,99737.06
2022-08-05T23:39:32.461Z,99737.72
2022-08-05T23:42:28.966Z,99733.19
2022-08-05T23:45:04.264Z,99726.28
2022-08-05T23:47:48.379Z,99727.88
2022-08-05T23:50:39.708Z,99730.19
2022-08-05T23:53:22.896Z,99731.13
2022-08-05T23:56:01.390Z,99726.09
2022-08-05T23:58:37.309Z,99724.88
